Time;durP1;ratioP1;P1;durP2;ratioP2;P2;SDS_P1;SDS_P2;PMS_P1;PMS_P2;Temp;Humidity;BMP_temperature;BMP_pressure;BME280_temperature;BME280_humidity;BME280_pressure;Samples;Min_cycle;Max_cycle;Signal;HPM_P1;HPM_P2
2021/09/15 00:01:21;;;;;;;49.75;27.42;;;19.10;99.90;;;;;;4893616;29;20149;-72
2021/09/15 00:03:47;;;;;;;46.22;25.27;;;19.10;99.90;;;;;;4889121;29;20032;-73
2021/09/15 00:06:12;;;;;;;47.83;27.55;;;19.10;99.90;;;;;;4894688;29;20513;-71
2021/09/15 00:08:38;;;;;;;43.85;26.45;;;19.00;99.90;;;;;;4896822;29;20039;-71
2021/09/15 00:11:04;;;;;;;44.65;26.58;;;19.00;99.90;;;;;;4897304;29;20039;-71
2021/09/15 00:13:31;;;;;;;47.13;27.95;;;19.00;99.90;;;;;;4897776;29;20430;-71
2021/09/15 00:15:57;;;;;;;50.17;30.10;;;19.00;99.90;;;;;;4895925;29;20033;-71
2021/09/15 00:18:23;;;;;;;52.72;30.15;;;19.00;99.90;;;;;;4894314;29;20397;-72
2021/09/15 00:20:48;;;;;;;48.53;28.77;;;19.00;99.90;;;;;;4886468;29;20044;-72
2021/09/15 00:23:14;;;;;;;60.28;30.58;;;19.00;99.90;;;;;;4897309;29;20029;-72
2021/09/15 00:25:39;;;;;;;50.78;29.60;;;19.00;99.90;;;;;;4895825;29;20029;-72
2021/09/15 00:28:05;;;;;;;61.20;30.38;;;19.00;99.90;;;;;;4897628;29;20521;-72
2021/09/15 00:30:31;;;;;;;56.63;32.25;;;19.00;99.90;;;;;;4897285;29;20379;-72
2021/09/15 00:32:56;;;;;;;56.33;30.77;;;19.00;99.90;;;;;;4897628;29;20128;-71
2021/09/15 00:35:22;;;;;;;52.47;28.95;;;19.00;99.90;;;;;;4885855;29;20040;-71
2021/09/15 00:37:47;;;;;;;51.30;29.90;;;19.00;99.90;;;;;;4901351;29;20047;-71
2021/09/15 00:40:13;;;;;;;52.33;29.45;;;19.00;99.90;;;;;;4900957;29;20039;-71
2021/09/15 00:42:39;;;;;;;48.72;28.85;;;19.00;99.90;;;;;;4915451;29;20472;-71
2021/09/15 00:45:05;;;;;;;49.10;27.27;;;19.00;99.90;;;;;;4900273;29;20085;-72
2021/09/15 00:47:31;;;;;;;51.33;29.15;;;18.90;99.90;;;;;;4900953;29;20028;-70
2021/09/15 00:49:56;;;;;;;48.45;29.13;;;18.90;99.90;;;;;;4898452;29;20084;-71
2021/09/15 00:52:22;;;;;;;43.42;27.02;;;18.90;99.90;;;;;;4912195;29;20067;-71
2021/09/15 00:54:48;;;;;;;55.60;30.15;;;18.90;99.90;;;;;;4900821;29;20040;-71
2021/09/15 00:57:14;;;;;;;45.35;27.85;;;18.90;99.90;;;;;;4900778;29;20047;-71
2021/09/15 00:59:40;;;;;;;46.35;27.45;;;18.90;99.90;;;;;;4900880;29;20036;-72
2021/09/15 01:02:06;;;;;;;41.38;24.42;;;18.90;99.90;;;;;;4900049;29;20482;-70
2021/09/15 01:04:31;;;;;;;45.70;25.38;;;18.90;99.90;;;;;;4898251;29;20044;-71
2021/09/15 01:06:57;;;;;;;37.60;22.00;;;18.90;99.90;;;;;;4913258;29;20051;-71
2021/09/15 01:09:24;;;;;;;41.10;24.60;;;18.90;99.90;;;;;;4912422;29;20059;-71
2021/09/15 01:11:51;;;;;;;34.70;22.67;;;18.90;99.90;;;;;;4899614;29;20541;-70
2021/09/15 01:14:17;;;;;;;37.28;21.90;;;18.90;99.90;;;;;;4900236;29;20029;-72
2021/09/15 01:16:49;;;;;;;38.58;21.55;;;18.90;99.90;;;;;;4900418;29;20450;-71
2021/09/15 01:19:15;;;;;;;33.42;20.90;;;19.00;99.90;;;;;;4900176;29;20565;-70
2021/09/15 01:21:40;;;;;;;35.05;22.05;;;19.00;99.90;;;;;;4898285;29;20115;-71
2021/09/15 01:24:06;;;;;;;34.25;19.92;;;19.00;99.90;;;;;;4893611;29;20025;-71
2021/09/15 01:26:35;;;;;;;33.55;20.60;;;19.00;99.90;;;;;;4896708;29;20029;-71
2021/09/15 01:29:03;;;;;;;33.15;19.63;;;19.00;99.90;;;;;;4899109;29;20017;-72
2021/09/15 01:31:29;;;;;;;;;;;19.00;99.90;;;;;;4898395;29;20052;-71
2021/09/15 01:33:54;;;;;;;30.15;18.20;;;19.00;99.90;;;;;;4900048;29;20359;-72
2021/09/15 01:36:21;;;;;;;29.20;17.88;;;19.00;99.90;;;;;;4899620;29;20557;-71
2021/09/15 01:38:47;;;;;;;33.03;20.05;;;19.00;99.90;;;;;;4899554;29;20067;-71
2021/09/15 01:41:13;;;;;;;34.53;19.65;;;18.90;99.90;;;;;;4899521;29;20032;-71
2021/09/15 01:43:38;;;;;;;33.47;18.65;;;18.90;99.90;;;;;;4899896;29;20032;-71
2021/09/15 01:46:04;;;;;;;30.60;18.00;;;19.00;99.90;;;;;;4899704;29;20029;-72
2021/09/15 01:48:29;;;;;;;28.75;18.45;;;19.00;99.90;;;;;;4899633;29;20393;-70
2021/09/15 01:50:55;;;;;;;30.98;18.77;;;18.90;99.90;;;;;;4899856;29;20035;-71
2021/09/15 01:53:21;;;;;;;29.92;17.95;;;18.90;99.90;;;;;;4910547;29;20033;-72
2021/09/15 01:55:46;;;;;;;30.17;19.05;;;19.00;99.90;;;;;;4899398;29;20056;-72
2021/09/15 01:58:12;;;;;;;28.38;18.08;;;18.90;99.90;;;;;;4911516;29;20051;-71
2021/09/15 02:00:37;;;;;;;30.55;18.73;;;18.90;99.90;;;;;;4899648;29;20033;-72
2021/09/15 02:03:03;;;;;;;24.58;14.43;;;18.90;99.90;;;;;;4899751;29;20076;-71
2021/09/15 02:05:30;;;;;;;27.08;15.85;;;18.90;99.90;;;;;;4898175;29;20043;-71
2021/09/15 02:07:55;;;;;;;24.10;16.65;;;18.90;99.90;;;;;;4894960;29;20434;-72
2021/09/15 02:10:21;;;;;;;30.08;17.80;;;18.80;99.90;;;;;;4899066;29;20037;-71
2021/09/15 02:12:47;;;;;;;33.33;18.23;;;18.80;99.90;;;;;;4898611;29;20494;-71
2021/09/15 02:15:13;;;;;;;27.15;16.90;;;18.80;99.90;;;;;;4899371;29;20115;-71
2021/09/15 02:17:40;;;;;;;27.15;16.40;;;18.70;99.90;;;;;;4897814;29;20383;-71
2021/09/15 02:20:08;;;;;;;27.52;16.65;;;18.70;99.90;;;;;;4899096;29;20036;-71
2021/09/15 02:22:35;;;;;;;28.20;15.73;;;18.60;99.90;;;;;;4897583;29;20045;-71
2021/09/15 02:25:02;;;;;;;24.52;16.13;;;18.70;99.90;;;;;;4898591;29;20089;-71
2021/09/15 02:27:28;;;;;;;26.77;17.20;;;18.70;99.90;;;;;;4899073;29;20489;-70
2021/09/15 02:29:53;;;;;;;32.28;18.23;;;18.60;99.90;;;;;;4913516;29;20085;-72
2021/09/15 02:32:19;;;;;;;25.23;16.23;;;18.60;99.90;;;;;;4912329;29;20040;-72
2021/09/15 02:34:46;;;;;;;27.08;15.95;;;18.60;99.90;;;;;;4881293;29;20076;-72
2021/09/15 02:37:12;;;;;;;30.02;17.92;;;18.60;99.90;;;;;;4912948;29;20052;-72
2021/09/15 02:39:37;;;;;;;26.52;15.32;;;18.70;99.90;;;;;;4898489;29;20072;-71
2021/09/15 02:42:03;;;;;;;25.92;16.95;;;18.60;99.90;;;;;;4912616;29;20091;-71
2021/09/15 02:44:29;;;;;;;29.33;17.80;;;18.60;99.90;;;;;;4885822;29;20044;-71
2021/09/15 02:46:54;;;;;;;31.15;18.30;;;18.60;99.90;;;;;;4887997;29;20394;-71
2021/09/15 02:49:20;;;;;;;26.70;17.25;;;18.60;99.90;;;;;;4898386;29;20032;-70
2021/09/15 02:51:45;;;;;;;31.55;17.45;;;18.70;99.90;;;;;;4912701;29;20080;-71
2021/09/15 02:54:11;;;;;;;28.20;18.20;;;18.60;99.90;;;;;;4887181;29;20423;-71
2021/09/15 02:56:36;;;;;;;30.15;18.13;;;18.60;99.90;;;;;;4896593;29;20128;-71
2021/09/15 02:59:02;;;;;;;24.52;16.75;;;18.60;99.90;;;;;;4896553;29;20077;-72
2021/09/15 03:01:28;;;;;;;39.28;19.75;;;18.60;99.90;;;;;;4910293;29;20047;-71
2021/09/15 03:03:53;;;;;;;30.83;19.90;;;18.60;99.90;;;;;;4898568;29;20475;-71
2021/09/15 03:06:19;;;;;;;30.33;18.80;;;18.60;99.90;;;;;;4897989;29;20100;-71
2021/09/15 03:08:44;;;;;;;32.63;19.17;;;18.50;99.90;;;;;;4896606;29;20473;-71
2021/09/15 03:11:10;;;;;;;27.92;18.13;;;18.60;99.90;;;;;;4891435;29;20041;-70
2021/09/15 03:13:36;;;;;;;27.90;17.98;;;18.60;99.90;;;;;;4890492;29;20131;-71
2021/09/15 03:16:01;;;;;;;25.58;15.77;;;18.60;99.90;;;;;;4898342;29;20032;-71
2021/09/15 03:18:27;;;;;;;30.73;16.77;;;18.50;99.90;;;;;;4898185;29;20028;-71
2021/09/15 03:20:53;;;;;;;28.13;16.40;;;18.50;99.90;;;;;;4886831;29;20060;-71
2021/09/15 03:23:18;;;;;;;25.00;16.45;;;18.50;99.90;;;;;;4894690;29;20075;-71
2021/09/15 03:25:44;;;;;;;29.23;16.45;;;18.50;99.90;;;;;;4897802;29;20029;-71
2021/09/15 03:28:09;;;;;;;24.05;16.42;;;18.40;99.90;;;;;;4897908;29;20394;-71
2021/09/15 03:30:35;;;;;;;33.78;17.02;;;18.40;99.90;;;;;;4898247;29;20024;-71
2021/09/15 03:33:00;;;;;;;27.08;15.00;;;18.40;99.90;;;;;;4897266;29;20036;-71
2021/09/15 03:35:26;;;;;;;26.05;15.90;;;18.40;99.90;;;;;;4897991;29;20024;-71
2021/09/15 03:37:51;;;;;;;22.50;15.27;;;18.40;99.90;;;;;;4897346;29;20068;-71
2021/09/15 03:40:17;;;;;;;24.00;14.50;;;18.40;99.90;;;;;;4896628;29;20056;-71
2021/09/15 03:42:43;;;;;;;26.20;15.65;;;18.40;99.90;;;;;;4893893;29;20033;-70
2021/09/15 03:45:09;;;;;;;25.23;16.20;;;18.40;99.90;;;;;;4896637;29;20091;-71
2021/09/15 03:47:34;;;;;;;27.05;16.00;;;18.40;99.90;;;;;;4897761;29;20100;-71
2021/09/15 03:50:00;;;;;;;22.92;14.82;;;18.40;99.90;;;;;;4897613;29;20056;-71
2021/09/15 03:52:26;;;;;;;25.60;14.82;;;18.40;99.90;;;;;;4889776;29;20052;-71
2021/09/15 03:54:51;;;;;;;27.35;15.82;;;18.40;99.90;;;;;;4879375;29;20036;-72
2021/09/15 03:57:17;;;;;;;25.33;15.20;;;18.40;99.90;;;;;;4897762;29;20490;-71
2021/09/15 03:59:42;;;;;;;25.15;14.38;;;18.40;99.90;;;;;;4897238;29;20115;-71
2021/09/15 04:02:08;;;;;;;31.02;16.38;;;18.40;99.90;;;;;;4906642;29;20455;-72
2021/09/15 04:04:34;;;;;;;23.30;15.75;;;18.40;99.90;;;;;;4887412;29;20108;-71
2021/09/15 04:06:59;;;;;;;25.33;15.48;;;18.40;99.90;;;;;;4896985;29;20044;-71
2021/09/15 04:09:25;;;;;;;24.70;14.07;;;18.40;99.90;;;;;;4896778;29;20025;-71
2021/09/15 04:11:50;;;;;;;22.33;14.57;;;18.40;99.90;;;;;;4891873;29;20037;-71
2021/09/15 04:14:16;;;;;;;27.50;16.35;;;18.40;99.90;;;;;;4884143;29;20047;-71
2021/09/15 04:16:42;;;;;;;23.90;14.73;;;18.50;99.90;;;;;;4896977;29;20032;-71
2021/09/15 04:19:07;;;;;;;22.15;14.32;;;18.50;99.90;;;;;;4896142;29;20529;-72
2021/09/15 04:21:33;;;;;;;21.65;14.90;;;18.50;99.90;;;;;;4911762;29;20538;-72
2021/09/15 04:31:56;;;;;;;32.45;19.65;;;18.60;99.90;;;;;;4897892;29;20040;-71
2021/09/15 04:34:22;;;;;;;26.05;17.48;;;18.60;99.90;;;;;;4895717;29;20029;-71
2021/09/15 04:36:47;;;;;;;26.83;16.88;;;18.50;99.90;;;;;;4896180;29;20028;-71
2021/09/15 04:39:13;;;;;;;28.58;16.17;;;18.50;99.90;;;;;;4898733;29;20040;-72
2021/09/15 04:41:38;;;;;;;31.63;18.08;;;18.50;99.90;;;;;;4897339;29;20033;-71
2021/09/15 04:44:04;;;;;;;32.58;17.38;;;18.50;99.90;;;;;;4897279;29;20040;-71
2021/09/15 04:46:30;;;;;;;31.83;18.65;;;18.50;99.90;;;;;;4895253;29;20036;-71
2021/09/15 04:48:55;;;;;;;26.55;17.48;;;18.60;99.90;;;;;;4877458;29;20025;-71
2021/09/15 04:51:21;;;;;;;28.05;16.13;;;18.60;99.90;;;;;;4881494;29;20144;-72
2021/09/15 04:53:46;;;;;;;25.05;15.85;;;18.60;99.90;;;;;;4897216;29;20060;-71
2021/09/15 04:56:12;;;;;;;27.95;16.42;;;18.70;99.90;;;;;;4895184;29;20041;-71
2021/09/15 04:58:38;;;;;;;28.38;17.95;;;18.60;99.90;;;;;;4891477;29;20479;-72
2021/09/15 05:01:03;;;;;;;35.20;17.35;;;18.60;99.90;;;;;;4897221;29;20037;-72
2021/09/15 05:03:29;;;;;;;29.08;18.73;;;18.70;99.90;;;;;;4896746;29;20056;-72
2021/09/15 05:05:54;;;;;;;36.78;19.80;;;18.70;99.90;;;;;;4896672;29;20131;-72
2021/09/15 05:08:20;;;;;;;30.27;16.60;;;18.70;99.90;;;;;;4911301;29;20044;-71
2021/09/15 05:10:46;;;;;;;34.33;20.10;;;18.70;99.90;;;;;;4910890;29;20076;-71
2021/09/15 05:13:11;;;;;;;26.90;17.67;;;18.70;99.90;;;;;;4896989;29;20534;-72
2021/09/15 05:15:37;;;;;;;32.13;17.35;;;18.70;99.90;;;;;;4896580;29;20509;-72
2021/09/15 05:18:03;;;;;;;35.30;21.23;;;18.70;99.90;;;;;;4895244;29;20040;-71
2021/09/15 05:20:28;;;;;;;33.58;18.77;;;18.80;99.90;;;;;;4896786;29;20479;-72
2021/09/15 05:22:56;;;;;;;29.85;18.67;;;18.80;99.90;;;;;;4896813;29;20037;-72
2021/09/15 05:25:22;;;;;;;34.30;20.58;;;18.80;99.90;;;;;;4900447;29;20039;-72
2021/09/15 05:27:48;;;;;;;33.57;20.17;;;18.90;99.90;;;;;;4898458;29;20398;-71
2021/09/15 05:30:15;;;;;;;34.55;18.80;;;18.90;99.90;;;;;;4899574;29;20021;-71
2021/09/15 05:32:41;;;;;;;34.65;18.70;;;18.90;99.90;;;;;;4899856;29;20036;-72
2021/09/15 05:35:08;;;;;;;36.03;20.80;;;18.90;99.90;;;;;;4899028;29;20108;-72
2021/09/15 05:37:35;;;;;;;31.98;17.92;;;18.90;99.90;;;;;;4899749;29;20107;-72
2021/09/15 05:40:01;;;;;;;33.80;19.17;;;19.00;99.90;;;;;;4899970;29;20512;-72
2021/09/15 05:42:27;;;;;;;33.95;19.05;;;19.00;99.90;;;;;;4899609;29;20025;-72
2021/09/15 05:44:53;;;;;;;37.33;22.33;;;19.00;99.90;;;;;;4898945;29;20107;-72
2021/09/15 05:47:19;;;;;;;39.58;21.63;;;19.00;99.90;;;;;;4898552;29;20029;-71
2021/09/15 05:49:44;;;;;;;29.65;19.17;;;18.90;99.90;;;;;;4900857;29;20039;-71
2021/09/15 05:52:10;;;;;;;30.60;19.65;;;18.90;99.90;;;;;;4900716;29;20112;-72
2021/09/15 05:54:36;;;;;;;28.67;17.98;;;18.90;99.90;;;;;;4898200;29;20045;-71
2021/09/15 05:57:02;;;;;;;26.90;17.67;;;18.90;99.90;;;;;;4899509;29;20035;-72
2021/09/15 05:59:28;;;;;;;31.35;18.45;;;18.90;99.90;;;;;;4899496;29;20402;-72
2021/09/15 06:01:53;;;;;;;29.25;18.70;;;18.90;99.90;;;;;;4899804;29;20044;-71
2021/09/15 06:04:19;;;;;;;33.38;18.17;;;18.90;99.90;;;;;;4899798;29;20533;-72
2021/09/15 06:06:44;;;;;;;26.40;17.27;;;18.90;99.90;;;;;;4899443;29;20442;-72
2021/09/15 06:09:10;;;;;;;40.47;20.77;;;18.90;99.90;;;;;;4913991;29;20056;-71
2021/09/15 06:11:36;;;;;;;29.58;18.02;;;19.00;99.90;;;;;;4898014;29;20029;-71
2021/09/15 06:14:01;;;;;;;36.83;21.60;;;19.00;99.90;;;;;;4898662;29;20040;-71
2021/09/15 06:16:27;;;;;;;35.95;20.52;;;19.00;99.90;;;;;;4913346;29;20024;-71
2021/09/15 06:18:53;;;;;;;35.38;20.65;;;19.00;99.90;;;;;;4899471;29;20486;-71
2021/09/15 06:21:19;;;;;;;45.42;21.80;;;19.00;99.90;;;;;;4899331;29;20069;-71
2021/09/15 06:23:45;;;;;;;39.17;22.00;;;19.00;99.90;;;;;;4899222;29;20431;-71
2021/09/15 06:26:11;;;;;;;37.65;22.70;;;19.00;99.90;;;;;;4899167;29;20029;-71
2021/09/15 06:28:37;;;;;;;47.38;24.95;;;19.10;99.90;;;;;;4898760;29;20677;-72
2021/09/15 06:31:04;;;;;;;49.47;25.02;;;19.10;99.90;;;;;;4890153;29;20048;-71
2021/09/15 06:33:30;;;;;;;58.88;29.33;;;19.20;99.90;;;;;;4904925;29;20025;-72
2021/09/15 06:35:56;;;;;;;47.05;25.20;;;19.20;99.90;;;;;;4898383;29;20035;-72
2021/09/15 06:38:21;;;;;;;52.53;25.95;;;19.30;99.90;;;;;;4899618;29;20406;-72
2021/09/15 06:40:47;;;;;;;46.00;23.50;;;19.30;99.90;;;;;;4895070;29;20096;-73
2021/09/15 06:43:13;;;;;;;45.75;25.23;;;19.30;99.90;;;;;;4895487;29;20076;-73
2021/09/15 06:45:38;;;;;;;44.55;23.25;;;19.30;99.90;;;;;;4898679;29;20025;-72
2021/09/15 06:48:04;;;;;;;50.97;25.77;;;19.30;99.90;;;;;;4898844;29;20020;-72
2021/09/15 06:50:30;;;;;;;49.97;24.73;;;19.30;99.90;;;;;;4898814;29;20028;-72
2021/09/15 06:52:56;;;;;;;51.33;25.08;;;19.30;99.90;;;;;;4893318;29;20096;-72
2021/09/15 06:55:23;;;;;;;44.63;23.95;;;19.40;99.90;;;;;;4886250;29;20021;-72
2021/09/15 06:57:49;;;;;;;;;;;19.40;99.90;;;;;;4897894;29;20108;-72
2021/09/15 07:00:18;;;;;;;49.75;26.27;;;19.30;99.90;;;;;;4898935;29;19962;-72
2021/09/15 07:02:44;;;;;;;56.80;26.58;;;19.30;99.90;;;;;;4898458;29;20017;-72
2021/09/15 07:05:10;;;;;;;50.30;24.40;;;19.30;99.90;;;;;;4894358;29;20436;-73
2021/09/15 07:07:35;;;;;;;54.65;26.42;;;19.30;99.90;;;;;;4896458;29;20052;-74
2021/09/15 07:10:01;;;;;;;63.40;28.02;;;19.30;99.90;;;;;;4898226;29;20025;-73
2021/09/15 07:12:27;;;;;;;45.67;24.25;;;19.20;99.90;;;;;;4898808;29;20028;-74
2021/09/15 07:14:52;;;;;;;45.50;23.90;;;19.20;99.90;;;;;;4897152;29;20068;-73
2021/09/15 07:17:18;;;;;;;55.53;26.75;;;19.20;99.90;;;;;;4893737;29;20494;-73
2021/09/15 07:19:43;;;;;;;57.60;24.95;;;19.20;99.90;;;;;;4889656;29;20112;-73
2021/09/15 07:22:09;;;;;;;62.55;29.02;;;19.20;99.90;;;;;;4912504;29;20037;-74
2021/09/15 07:24:34;;;;;;;59.05;26.23;;;19.20;99.90;;;;;;4897927;29;20401;-72
2021/09/15 07:27:00;;;;;;;54.22;26.30;;;19.20;99.90;;;;;;4912594;29;20028;-73
2021/09/15 07:29:26;;;;;;;51.08;24.90;;;19.20;99.90;;;;;;4896941;29;20032;-72
2021/09/15 07:31:51;;;;;;;48.33;23.73;;;19.20;99.90;;;;;;4897501;29;20047;-73
2021/09/15 07:34:17;;;;;;;56.35;25.40;;;19.20;99.90;;;;;;4897831;29;20517;-73
2021/09/15 07:36:42;;;;;;;53.67;24.75;;;19.20;99.90;;;;;;4898361;29;20390;-74
2021/09/15 07:39:08;;;;;;;55.15;25.90;;;19.20;99.90;;;;;;4897912;29;20040;-72
2021/09/15 07:41:33;;;;;;;52.05;23.95;;;19.20;99.90;;;;;;4912461;29;20035;-73
2021/09/15 07:44:00;;;;;;;54.13;24.33;;;19.00;99.90;;;;;;4913018;29;20060;-73
2021/09/15 07:46:26;;;;;;;48.85;23.20;;;19.00;99.90;;;;;;4894032;29;20031;-73
2021/09/15 07:48:52;;;;;;;56.72;23.75;;;19.00;99.90;;;;;;4896506;29;20020;-73
2021/09/15 07:51:19;;;;;;;56.95;25.02;;;19.00;99.90;;;;;;4898212;29;20486;-72
2021/09/15 07:53:45;;;;;;;52.20;24.93;;;19.00;99.90;;;;;;4898065;29;20494;-72
2021/09/15 07:56:11;;;;;;;55.17;25.77;;;19.00;99.90;;;;;;4897891;29;20028;-73
2021/09/15 07:58:36;;;;;;;53.22;24.77;;;19.00;99.90;;;;;;4897488;29;20036;-72
2021/09/15 08:01:02;;;;;;;50.20;24.95;;;19.00;99.90;;;;;;4893799;29;20108;-72
2021/09/15 08:03:28;;;;;;;45.67;24.08;;;18.90;99.90;;;;;;4908643;29;20036;-72
2021/09/15 08:05:54;;;;;;;41.55;22.25;;;18.90;99.90;;;;;;4897883;29;20115;-72
2021/09/15 08:08:21;;;;;;;44.15;23.02;;;19.00;99.90;;;;;;4896132;29;20177;-73
2021/09/15 08:10:46;;;;;;;42.55;21.92;;;19.10;99.90;;;;;;4896740;29;20024;-73
2021/09/15 08:13:12;;;;;;;48.22;22.48;;;19.10;99.90;;;;;;4897624;29;20394;-73
2021/09/15 08:15:38;;;;;;;44.35;22.52;;;19.10;99.90;;;;;;4896767;29;20029;-72
2021/09/15 08:18:04;;;;;;;50.40;25.95;;;19.10;99.90;;;;;;4896743;29;20045;-76
2021/09/15 08:20:29;;;;;;;42.15;20.63;;;19.10;99.90;;;;;;4895236;29;20080;-72
2021/09/15 08:22:56;;;;;;;39.53;20.80;;;19.20;99.90;;;;;;4894325;29;20020;-72
2021/09/15 08:25:22;;;;;;;46.88;21.58;;;19.20;99.90;;;;;;4896999;29;20394;-72
2021/09/15 08:27:48;;;;;;;42.17;21.30;;;19.30;99.90;;;;;;4879151;29;20375;-72
2021/09/15 08:30:14;;;;;;;47.33;23.77;;;19.30;99.90;;;;;;4879349;29;20096;-72
2021/09/15 08:32:40;;;;;;;42.78;21.20;;;19.40;99.90;;;;;;4898214;29;20024;-72
2021/09/15 08:35:07;;;;;;;42.30;23.48;;;19.40;99.90;;;;;;4897717;29;20032;-72
2021/09/15 08:37:37;;;;;;;32.67;16.40;;;19.40;99.90;;;;;;4888886;29;20506;-72
2021/09/15 08:40:08;;;;;;;40.15;22.00;;;19.40;99.90;;;;;;4897567;29;20036;-72
2021/09/15 08:42:36;;;;;;;35.55;19.67;;;19.50;99.90;;;;;;4897643;29;20367;-72
2021/09/15 08:45:06;;;;;;;44.67;20.45;;;19.60;99.90;;;;;;4879379;29;20018;-72
2021/09/15 08:47:35;;;;;;;42.25;20.60;;;19.70;99.90;;;;;;4892582;29;20080;-72
2021/09/15 08:50:02;;;;;;;38.08;20.23;;;19.60;99.90;;;;;;4897777;29;20043;-72
2021/09/15 08:52:27;;;;;;;34.97;19.20;;;19.70;99.90;;;;;;4895846;29;20033;-72
2021/09/15 08:54:54;;;;;;;34.17;18.55;;;19.70;99.90;;;;;;4897559;29;20108;-71
2021/09/15 08:57:20;;;;;;;35.78;18.20;;;19.70;99.90;;;;;;4898796;29;20458;-72
2021/09/15 08:59:45;;;;;;;40.22;21.08;;;19.70;99.90;;;;;;4901513;29;20035;-72
2021/09/15 09:02:12;;;;;;;39.83;21.27;;;19.70;99.90;;;;;;4898970;29;20107;-72
2021/09/15 09:05:00;;;;;;;41.38;20.52;;;19.70;99.90;;;;;;4900734;29;20033;-71
2021/09/15 09:07:26;;;;;;;34.20;20.75;;;19.70;99.90;;;;;;4898212;29;20044;-72
2021/09/15 09:09:54;;;;;;;38.42;21.48;;;19.70;99.90;;;;;;4914267;29;20421;-72
2021/09/15 09:12:24;;;;;;;40.67;20.90;;;19.80;99.90;;;;;;4896834;29;20088;-72
2021/09/15 09:14:50;;;;;;;38.55;20.90;;;19.80;99.90;;;;;;4900804;29;20031;-72
2021/09/15 09:17:30;;;;;;;41.90;21.77;;;19.80;99.90;;;;;;4900480;29;20037;-72
2021/09/15 09:20:29;;;;;;;35.70;20.50;;;19.80;99.90;;;;;;4915019;29;20440;-72
2021/09/15 09:22:59;;;;;;;32.58;18.73;;;19.70;99.90;;;;;;4899708;29;20076;-72
2021/09/15 09:25:27;;;;;;;31.98;19.20;;;19.70;99.90;;;;;;4900699;29;20124;-72
2021/09/15 09:27:53;;;;;;;31.25;17.98;;;19.60;99.90;;;;;;4915360;29;20103;-72
2021/09/15 09:30:36;;;;;;;31.13;17.02;;;19.50;99.90;;;;;;4900511;29;20457;-72
2021/09/15 09:33:04;;;;;;;32.22;17.02;;;19.40;99.90;;;;;;4900596;29;20024;-73
2021/09/15 09:35:38;;;;;;;24.48;13.65;;;19.30;99.90;;;;;;4899511;29;20501;-72
2021/09/15 09:38:20;;;;;;;26.15;14.07;;;19.20;99.90;;;;;;4900437;29;20033;-72
2021/09/15 09:41:10;;;;;;;21.65;12.18;;;19.10;99.90;;;;;;4899139;29;20037;-72
2021/09/15 09:43:41;;;;;;;16.90;10.07;;;19.10;99.90;;;;;;4899131;29;20505;-71
2021/09/15 09:46:09;;;;;;;16.60;9.82;;;19.00;99.90;;;;;;4900735;29;20024;-71
2021/09/15 09:48:40;;;;;;;13.55;9.52;;;19.00;99.90;;;;;;4900252;29;20036;-72
2021/09/15 09:51:24;;;;;;;20.90;10.00;;;19.00;99.90;;;;;;4900619;29;20111;-71
2021/09/15 09:54:04;;;;;;;12.80;9.27;;;19.10;99.90;;;;;;4898242;29;20020;-71
2021/09/15 09:56:29;;;;;;;14.15;9.27;;;19.20;99.90;;;;;;4894216;29;20068;-71
2021/09/15 09:58:55;;;;;;;12.90;8.68;;;19.40;99.90;;;;;;4899898;29;20037;-72
2021/09/15 10:01:22;;;;;;;13.13;8.90;;;19.50;99.90;;;;;;4913635;29;20097;-71
2021/09/15 10:03:48;;;;;;;12.52;8.75;;;19.50;99.90;;;;;;4899888;29;20096;-72
2021/09/15 10:06:15;;;;;;;12.07;8.02;;;19.60;99.90;;;;;;4899677;29;20071;-72
2021/09/15 10:08:42;;;;;;;10.77;7.27;;;19.70;99.90;;;;;;4899426;29;20029;-71
2021/09/15 10:11:08;;;;;;;10.52;7.15;;;19.90;99.90;;;;;;4913490;29;20152;-72
2021/09/15 10:13:34;;;;;;;10.88;7.70;;;20.00;99.90;;;;;;4899894;29;20021;-72
2021/09/15 10:16:03;;;;;;;8.18;6.25;;;20.00;99.90;;;;;;4899716;29;20418;-71
2021/09/15 10:18:29;;;;;;;10.85;7.15;;;20.10;99.90;;;;;;4909933;29;20043;-71
2021/09/15 10:20:57;;;;;;;9.68;7.20;;;20.10;99.90;;;;;;4899070;29;20036;-71
2021/09/15 10:23:40;;;;;;;12.48;8.27;;;20.20;99.90;;;;;;4881611;29;20474;-71
2021/09/15 10:26:25;;;;;;;10.55;6.35;;;20.20;99.90;;;;;;4892280;29;20036;-71
2021/09/15 10:29:13;;;;;;;13.07;7.13;;;20.20;99.90;;;;;;4898071;29;20398;-71
2021/09/15 10:31:51;;;;;;;8.40;6.18;;;20.20;99.90;;;;;;4899323;29;20481;-72
2021/09/15 10:34:38;;;;;;;10.23;6.22;;;20.20;99.90;;;;;;4889477;29;20037;-72
2021/09/15 10:37:13;;;;;;;;;;;20.20;99.90;;;;;;4899100;29;20031;-71
2021/09/15 10:39:57;;;;;;;8.25;6.18;;;20.30;99.90;;;;;;4897684;29;19915;-71
2021/09/15 10:42:50;;;;;;;11.38;5.75;;;20.30;99.90;;;;;;4904410;29;20053;-71
2021/09/15 10:45:22;;;;;;;8.20;5.82;;;20.20;99.90;;;;;;4899325;29;20065;-71
2021/09/15 10:47:49;;;;;;;8.30;5.90;;;20.20;99.90;;;;;;4899256;29;20048;-70
2021/09/15 10:50:29;;;;;;;11.90;4.50;;;20.20;99.90;;;;;;4899186;29;20016;-71
2021/09/15 10:53:07;;;;;;;6.80;4.78;;;20.30;99.90;;;;;;4886018;29;20072;-71
2021/09/15 10:55:46;;;;;;;7.10;3.40;;;20.30;99.90;;;;;;4888088;29;20501;-72
2021/09/15 10:58:17;;;;;;;5.75;3.78;;;20.30;99.90;;;;;;4883929;29;20033;-71
2021/09/15 11:00:53;;;;;;;6.95;4.50;;;20.30;99.90;;;;;;4897421;29;20047;-71
2021/09/15 11:03:23;;;;;;;5.53;3.78;;;20.40;99.90;;;;;;4898526;29;20075;-71
2021/09/15 11:05:50;;;;;;;6.97;3.80;;;20.30;99.90;;;;;;4898405;29;20021;-75
2021/09/15 11:08:22;;;;;;;7.97;3.45;;;20.20;99.90;;;;;;4898876;29;20425;-71
2021/09/15 11:10:48;;;;;;;6.43;3.30;;;20.20;99.90;;;;;;4912073;29;20494;-71
2021/09/15 11:13:16;;;;;;;5.97;2.85;;;20.20;99.90;;;;;;4898899;29;20031;-72
2021/09/15 11:15:44;;;;;;;2.50;2.30;;;20.30;99.90;;;;;;4898433;29;20083;-71
2021/09/15 11:18:25;;;;;;;3.65;2.10;;;20.40;99.90;;;;;;4881441;29;20021;-71
2021/09/15 11:21:05;;;;;;;2.33;2.08;;;20.30;99.90;;;;;;4896128;29;20180;-71
2021/09/15 11:23:31;;;;;;;2.00;1.35;;;20.40;99.90;;;;;;4887767;29;20060;-71
2021/09/15 11:25:58;;;;;;;3.22;1.65;;;20.40;99.90;;;;;;4897259;29;20033;-71
2021/09/15 11:28:25;;;;;;;4.03;1.73;;;20.50;99.90;;;;;;4898584;29;20033;-72
2021/09/15 11:30:51;;;;;;;1.58;0.93;;;20.50;99.90;;;;;;4898458;29;20025;-71
2021/09/15 11:33:26;;;;;;;5.97;1.40;;;20.50;99.90;;;;;;4896080;29;20046;-71
2021/09/15 11:35:57;;;;;;;5.03;2.20;;;20.60;99.90;;;;;;4897084;29;20027;-71
2021/09/15 11:38:28;;;;;;;7.25;1.52;;;20.60;99.90;;;;;;4897015;29;20486;-71
2021/09/15 11:41:07;;;;;;;4.57;1.92;;;20.70;99.90;;;;;;4896923;29;20076;-72
2021/09/15 11:43:32;;;;;;;8.40;2.10;;;20.80;99.90;;;;;;4898072;29;20033;-72
2021/09/15 11:45:58;;;;;;;2.08;1.80;;;20.80;99.90;;;;;;4897494;29;20043;-71
2021/09/15 11:48:28;;;;;;;2.65;1.40;;;20.90;99.90;;;;;;4896112;29;20024;-71
2021/09/15 11:50:55;;;;;;;5.45;1.60;;;20.80;99.90;;;;;;4907284;29;20042;-72
2021/09/15 11:53:22;;;;;;;5.10;1.75;;;20.90;99.90;;;;;;4897265;29;20060;-71
2021/09/15 11:56:18;;;;;;;;;;;20.90;99.90;;;;;;4896526;29;20226;-71
2021/09/15 11:58:35;;;;;;;;;;;20.80;99.90;;;;;;4894918;29;19911;-71
2021/09/15 12:01:00;;;;;;;;;;;20.70;99.90;;;;;;4895596;29;19922;-71
2021/09/15 12:03:28;;;;;;;;;;;20.70;99.90;;;;;;4898139;29;20395;-72
2021/09/15 12:05:54;;;;;;;;;;;20.50;99.90;;;;;;4898306;29;19908;-71
2021/09/15 12:08:19;;;;;;;;;;;20.40;99.90;;;;;;4898144;29;20022;-71
2021/09/15 12:10:46;;;;;;;;;;;20.20;99.90;;;;;;4898160;29;19951;-71
2021/09/15 12:13:12;;;;;;;;;;;20.00;99.90;;;;;;4897345;29;19911;-71
2021/09/15 12:15:47;;;;;;;;;;;19.90;99.90;;;;;;4912462;29;20319;-71
2021/09/15 12:18:13;;;;;;;;;;;19.90;99.90;;;;;;4898692;29;20018;-71
2021/09/15 12:20:40;;;;;;;;;;;19.80;99.90;;;;;;4901558;29;19908;-71
2021/09/15 12:23:06;;;;;;;;;;;19.70;99.90;;;;;;4903659;29;19988;-70
2021/09/15 12:25:31;;;;;;;;;;;19.50;99.90;;;;;;4905790;29;19943;-70
2021/09/15 12:27:57;;;;;;;;;;;19.50;99.90;;;;;;4903946;29;19911;-70
2021/09/15 12:30:22;;;;;;;;;;;19.40;99.90;;;;;;4904022;29;19911;-71
2021/09/15 12:32:54;;;;;;;;;;;19.40;99.90;;;;;;4907295;29;19933;-70
2021/09/15 12:35:21;;;;;;;;;;;19.40;99.90;;;;;;4920292;29;19935;-70
2021/09/15 12:37:47;;;;;;;;;;;19.60;99.90;;;;;;4922881;29;19904;-74
2021/09/15 12:40:19;;;;;;;;;;;19.60;99.90;;;;;;4938827;29;19902;-75
2021/09/15 12:42:56;;;;;;;;;;;19.70;99.90;;;;;;4923909;29;19920;-74
2021/09/15 12:45:22;;;;;;;;;;;19.60;99.90;;;;;;4933231;29;19906;-73
2021/09/15 12:47:48;;;;;;;;;;;19.60;99.90;;;;;;4919064;29;19915;-71